»·PEaware :: N2604M L88-KSBP

N2604M :: L88-KSBP

FLIGHT INFORMATION

Flight Status: Arrived
Operator: Privately registered:
United States
More flights under this callsign
Pilot: Magnus A. (27892)
Aircraft: CESSNA 172 SKYHAWK
(C172)
More flights by this aircraft type
Origin: L88 New Cuyama
United States
Destination: KSBP San Luis Co Regl
United States
More flights between these airports :: More routes between these airports
Route:
File this flight plan on PilotEdge
Remarks: CAT-02
Altitude:
(Current/Filed)
6,500ft
Speed:
(Current/Filed)
120kts
Departed: 06-Feb-20 07:44 PM
Arrived: 06-Feb-20 07:57 PM
Distance/Time
Traveled:
50nm/0:12
Distance/Time
To Go:
Arrived

Flight Plot

Page will automatically refresh every two minutes.


Map Options




Map Legend


Flown Route
Filed Route
Departure Airport
Arrival Airport
Navaid (VOR, NDB)
Fix

Horizontal Profiles

Position Reports

Time Latitude Longitude Heading Altitude Ground
Speed
06-Feb-20 18:44 35.240003 -120.642398 120 216ft 0kts
06-Feb-20 18:45 35.240003 -120.642398 120 216ft 0kts
06-Feb-20 18:46 35.240003 -120.642398 120 216ft 0kts
06-Feb-20 18:47 35.240003 -120.642398 120 216ft 0kts
06-Feb-20 18:47 35.240003 -120.642398 120 216ft 0kts
06-Feb-20 18:49 35.240003 -120.642398 120 216ft 0kts
06-Feb-20 18:49 35.240003 -120.642398 120 216ft 0kts
06-Feb-20 18:50 35.240003 -120.642398 120 216ft 0kts
06-Feb-20 18:52 35.240003 -120.642398 120 216ft 0kts
06-Feb-20 18:52 35.240003 -120.642398 120 216ft 0kts
06-Feb-20 18:53 35.240003 -120.642398 120 216ft 0kts
06-Feb-20 18:55 35.240003 -120.642398 120 216ft 0kts
06-Feb-20 18:55 35.240003 -120.642398 120 216ft 0kts
06-Feb-20 18:56 35.240003 -120.642398 120 216ft 0kts
06-Feb-20 18:57 35.240003 -120.642398 120 216ft 0kts
06-Feb-20 18:58 35.240003 -120.642398 120 216ft 0kts
06-Feb-20 18:59 35.240003 -120.642398 120 216ft 0kts
06-Feb-20 19:00 35.240003 -120.642398 120 216ft 0kts
06-Feb-20 19:01 35.240003 -120.642398 120 216ft 0kts
06-Feb-20 19:02 35.240003 -120.642398 120 216ft 0kts
06-Feb-20 19:03 35.240003 -120.642398 120 216ft 0kts
06-Feb-20 19:04 35.240003 -120.642398 120 216ft 0kts
06-Feb-20 19:05 35.240003 -120.642398 120 216ft 0kts
06-Feb-20 19:06 35.240003 -120.642398 120 216ft 0kts
06-Feb-20 19:07 35.240003 -120.642398 120 216ft 0kts
06-Feb-20 19:08 35.240003 -120.642398 120 216ft 0kts
06-Feb-20 19:09 35.240003 -120.642398 120 216ft 0kts
06-Feb-20 19:10 35.240003 -120.642398 120 216ft 0kts
06-Feb-20 19:11 35.240003 -120.642398 120 216ft 0kts
06-Feb-20 19:12 35.240003 -120.642398 120 216ft 0kts
06-Feb-20 19:13 35.240003 -120.642398 120 216ft 0kts
06-Feb-20 19:14 35.240003 -120.642398 120 216ft 0kts
06-Feb-20 19:15 35.240003 -120.642398 120 216ft 0kts
06-Feb-20 19:16 35.240003 -120.642398 120 216ft 0kts
06-Feb-20 19:17 35.240003 -120.642398 120 216ft 0kts
06-Feb-20 19:18 35.240003 -120.642398 120 216ft 0kts
06-Feb-20 19:19 35.240003 -120.642398 120 216ft 0kts
06-Feb-20 19:20 35.239788 -120.642272 165 216ft 0kts
06-Feb-20 19:21 35.239788 -120.642272 165 216ft 0kts
06-Feb-20 19:22 35.239788 -120.642272 165 216ft 0kts
06-Feb-20 19:23 35.239788 -120.642272 165 216ft 0kts
06-Feb-20 19:24 35.239788 -120.642272 165 216ft 0kts
06-Feb-20 19:25 35.239788 -120.642272 165 216ft 0kts
06-Feb-20 19:26 35.239788 -120.642272 165 216ft 0kts
06-Feb-20 19:27 35.239788 -120.642272 165 216ft 0kts
06-Feb-20 19:28 35.239788 -120.642272 165 216ft 0kts
06-Feb-20 19:29 35.239788 -120.642272 165 216ft 0kts
06-Feb-20 19:30 35.239788 -120.642272 165 216ft 0kts
06-Feb-20 19:31 35.239788 -120.642272 165 216ft 0kts
06-Feb-20 19:32 35.239788 -120.642272 165 216ft 0kts
06-Feb-20 19:33 35.239788 -120.642272 165 216ft 0kts
06-Feb-20 19:34 35.239788 -120.642272 165 216ft 0kts
06-Feb-20 19:35 35.239788 -120.642272 165 216ft 0kts
06-Feb-20 19:36 35.238620 -120.641132 137 216ft 14kts
06-Feb-20 19:37 35.236024 -120.636835 124 216ft 22kts
06-Feb-20 19:38 35.234164 -120.633966 198 216ft 0kts
06-Feb-20 19:39 35.234164 -120.633966 198 216ft 0kts
06-Feb-20 19:40 35.234057 -120.634014 205 216ft 0kts
06-Feb-20 19:41 35.234029 -120.634003 94 216ft 0kts
06-Feb-20 19:42 35.232951 -120.633281 308 216ft 0kts
06-Feb-20 19:43 35.237433 -120.641608 301 567ft 61kts
06-Feb-20 19:44 35.243733 -120.661843 272 1193ft 78kts
06-Feb-20 19:45 35.225438 -120.655627 112 1318ft 86kts
06-Feb-20 19:46 35.225254 -120.630067 20 1188ft 85kts
06-Feb-20 19:47 35.237420 -120.641358 309 358ft 55kts
06-Feb-20 19:48 35.244740 -120.654554 299 604ft 65kts
06-Feb-20 19:49 35.232929 -120.663642 113 1047ft 102kts
06-Feb-20 19:50 35.222995 -120.639884 57 1193ft 74kts
06-Feb-20 19:51 35.233644 -120.634873 304 587ft 57kts
06-Feb-20 19:52 35.240027 -120.645760 305 287ft 68kts
06-Feb-20 19:53 35.238108 -120.663155 202 1097ft 95kts
06-Feb-20 19:54 35.223406 -120.643092 108 1042ft 83kts
06-Feb-20 19:55 35.231231 -120.631593 311 707ft 61kts
06-Feb-20 19:56 35.238829 -120.643651 308 216ft 40kts
06-Feb-20 19:57 35.242426 -120.647565 159 216ft 23kts
06-Feb-20 19:58 35.241399 -120.645962 111 216ft 3kts
06-Feb-20 19:59 35.239412 -120.642727 111 216ft 19kts
06-Feb-20 20:00 35.240005 -120.642552 312 216ft 0kts
06-Feb-20 20:01 35.240005 -120.642552 312 216ft 0kts
06-Feb-20 20:02 35.240005 -120.642552 312 216ft 0kts
06-Feb-20 20:03 35.240005 -120.642552 312 216ft 0kts
06-Feb-20 20:04 35.240005 -120.642552 312 216ft 0kts
06-Feb-20 20:05 35.240005 -120.642552 312 216ft 0kts
06-Feb-20 20:06 35.240005 -120.642552 312 216ft 0kts
06-Feb-20 20:07 35.240005 -120.642552 312 216ft 0kts
06-Feb-20 20:08 35.240005 -120.642552 312 216ft 0kts
06-Feb-20 20:09 35.240005 -120.642552 312 216ft 0kts
06-Feb-20 20:10 35.240005 -120.642552 312 216ft 0kts

Navigation Log

Ident Type
Flight plan parsing failed, navigation log unavailable